createdAt,value
2018-11-14T12:12:12.830Z,9.60
2018-11-14T12:22:22.043Z,8.60
2018-11-14T12:32:31.215Z,9.33
2018-11-14T12:42:40.681Z,7.90
2018-11-14T12:52:49.890Z,7.17
2018-11-14T13:02:58.952Z,8.03
2018-11-14T13:13:09.318Z,8.97
2018-11-14T13:23:19.569Z,6.70
2018-11-14T13:33:28.636Z,8.23
2018-11-14T13:43:38.432Z,10.03
2018-11-14T13:53:47.475Z,7.90
2018-11-14T14:03:56.632Z,6.03
2018-11-14T14:14:11.549Z,6.30
2018-11-14T14:24:20.794Z,8.53
2018-11-14T14:34:29.825Z,8.97
2018-11-14T14:44:39.106Z,5.83
2018-11-14T14:54:48.288Z,8.23
2018-11-14T15:04:57.385Z,20.73
2018-11-14T15:15:27.791Z,21.13
2018-11-14T15:25:37.072Z,22.23
2018-11-14T15:35:46.131Z,22.33
2018-11-14T15:45:55.246Z,19.70
2018-11-14T15:56:04.309Z,20.30
2018-11-14T16:06:13.387Z,23.50
2018-11-14T16:16:23.088Z,22.10
2018-11-14T16:26:32.076Z,21.57
2018-11-14T16:36:41.111Z,21.03
2018-11-14T16:46:51.929Z,18.97
2018-11-14T16:57:01.038Z,17.83
2018-11-14T17:07:11.067Z,19.50
2018-11-14T17:17:20.134Z,18.00
2018-11-14T17:27:29.243Z,23.23
2018-11-14T17:37:39.070Z,17.47
2018-11-14T17:47:48.592Z,13.63
2018-11-14T17:57:57.513Z,13.27
2018-11-14T18:08:06.512Z,13.43
2018-11-14T18:18:15.420Z,13.47
2018-11-14T18:28:24.565Z,12.17
2018-11-14T18:38:33.597Z,13.43
2018-11-14T18:48:42.535Z,10.33
2018-11-14T18:58:51.571Z,13.17
2018-11-14T19:09:00.646Z,10.07
2018-11-14T19:19:09.861Z,14.93
2018-11-14T19:29:19.076Z,15.10
2018-11-14T19:39:28.175Z,11.90
2018-11-14T19:49:37.225Z,14.23
2018-11-14T19:59:46.348Z,11.53
2018-11-14T20:09:55.286Z,13.83
2018-11-14T20:20:05.259Z,15.33
2018-11-14T20:30:18.037Z,11.87
2018-11-14T20:40:28.200Z,14.20
2018-11-14T20:50:37.237Z,15.03
2018-11-14T21:00:46.301Z,11.87
2018-11-14T21:10:55.266Z,12.77
2018-11-14T21:21:06.985Z,17.10
2018-11-14T21:31:16.299Z,15.97
2018-11-14T21:41:27.914Z,15.10
2018-11-14T21:51:37.019Z,14.63
2018-11-14T22:01:46.009Z,14.60
2018-11-14T22:11:55.161Z,16.67
2018-11-14T22:22:04.609Z,15.20
2018-11-14T22:32:13.700Z,15.33
2018-11-14T22:42:23.345Z,17.40
2018-11-14T22:52:32.329Z,18.80
2018-11-14T23:02:41.353Z,20.27
2018-11-14T23:12:53.869Z,19.87
2018-11-14T23:23:02.910Z,22.67
2018-11-14T23:33:11.936Z,24.80
2018-11-14T23:43:23.807Z,26.17
2018-11-14T23:53:33.485Z,28.63
